sensor_id;sensor_type;location;lat;lon;timestamp;pressure;altitude;pressure_sealevel;temperature;humidity
19596;BME280;9945;46.010;8.946;2023-02-20T00:02:17;98026.16;;;11.18;78.30
19596;BME280;9945;46.010;8.946;2023-02-20T00:04:46;98032.75;;;11.12;78.20
19596;BME280;9945;46.010;8.946;2023-02-20T00:07:13;98021.03;;;10.86;79.79
19596;BME280;9945;46.010;8.946;2023-02-20T00:09:40;98024.00;;;10.72;80.88
19596;BME280;9945;46.010;8.946;2023-02-20T00:12:08;98026.41;;;10.84;79.44
19596;BME280;9945;46.010;8.946;2023-02-20T00:14:34;98027.94;;;10.87;79.99
19596;BME280;9945;46.010;8.946;2023-02-20T00:17:01;98031.22;;;10.89;80.12
19596;BME280;9945;46.010;8.946;2023-02-20T00:19:29;98042.88;;;10.75;80.64
19596;BME280;9945;46.010;8.946;2023-02-20T00:21:56;98033.94;;;10.78;80.67
19596;BME280;9945;46.010;8.946;2023-02-20T00:24:23;98036.28;;;10.81;80.56
19596;BME280;9945;46.010;8.946;2023-02-20T00:26:51;98030.81;;;10.84;79.53
19596;BME280;9945;46.010;8.946;2023-02-20T00:29:20;98031.28;;;10.68;81.05
19596;BME280;9945;46.010;8.946;2023-02-20T00:31:50;98034.78;;;10.78;80.43
19596;BME280;9945;46.010;8.946;2023-02-20T00:34:17;98027.94;;;10.87;80.24
19596;BME280;9945;46.010;8.946;2023-02-20T00:36:45;98031.72;;;10.52;84.47
19596;BME280;9945;46.010;8.946;2023-02-20T00:39:12;98035.47;;;10.59;84.17
19596;BME280;9945;46.010;8.946;2023-02-20T00:41:39;98039.09;;;10.47;86.49
19596;BME280;9945;46.010;8.946;2023-02-20T00:44:06;98046.91;;;10.38;88.56
19596;BME280;9945;46.010;8.946;2023-02-20T00:46:33;98042.56;;;10.16;90.99
19596;BME280;9945;46.010;8.946;2023-02-20T00:49:00;98036.28;;;10.18;91.77
19596;BME280;9945;46.010;8.946;2023-02-20T00:51:27;98039.66;;;10.30;90.94
19596;BME280;9945;46.010;8.946;2023-02-20T00:53:57;98035.34;;;10.40;90.95
19596;BME280;9945;46.010;8.946;2023-02-20T00:56:24;98033.44;;;10.42;90.63
19596;BME280;9945;46.010;8.946;2023-02-20T00:58:50;98035.34;;;10.40;90.74
19596;BME280;9945;46.010;8.946;2023-02-20T01:01:18;98040.34;;;10.43;90.48
19596;BME280;9945;46.010;8.946;2023-02-20T01:03:44;98040.34;;;10.43;89.95
19596;BME280;9945;46.010;8.946;2023-02-20T01:06:11;98036.88;;;10.43;89.87
19596;BME280;9945;46.010;8.946;2023-02-20T01:08:38;98049.44;;;10.49;90.37
19596;BME280;9945;46.010;8.946;2023-02-20T01:11:06;98043.97;;;10.52;90.15
19596;BME280;9945;46.010;8.946;2023-02-20T01:13:33;98046.47;;;10.53;89.93
19596;BME280;9945;46.010;8.946;2023-02-20T01:16:00;98043.84;;;10.53;89.74
19596;BME280;9945;46.010;8.946;2023-02-20T01:18:27;98051.56;;;10.55;90.18
19596;BME280;9945;46.010;8.946;2023-02-20T01:20:54;98057.06;;;10.52;89.10
19596;BME280;9945;46.010;8.946;2023-02-20T01:23:21;98049.84;;;10.44;90.00
19596;BME280;9945;46.010;8.946;2023-02-20T01:25:48;98050.69;;;10.45;88.90
19596;BME280;9945;46.010;8.946;2023-02-20T01:28:16;98048.91;;;10.45;89.39
19596;BME280;9945;46.010;8.946;2023-02-20T01:30:43;98045.16;;;10.48;88.50
19596;BME280;9945;46.010;8.946;2023-02-20T01:33:10;98046.97;;;10.47;87.99
19596;BME280;9945;46.010;8.946;2023-02-20T01:35:36;98045.28;;;10.46;88.88
19596;BME280;9945;46.010;8.946;2023-02-20T01:38:04;98042.66;;;10.46;88.88
19596;BME280;9945;46.010;8.946;2023-02-20T01:40:31;98051.13;;;10.50;88.75
19596;BME280;9945;46.010;8.946;2023-02-20T01:42:59;98050.41;;;10.48;88.67
19596;BME280;9945;46.010;8.946;2023-02-20T01:45:35;98041.72;;;10.47;89.39
19596;BME280;9945;46.010;8.946;2023-02-20T01:48:03;98053.41;;;10.43;88.41
19596;BME280;9945;46.010;8.946;2023-02-20T01:50:32;98063.69;;;10.35;87.67
19596;BME280;9945;46.010;8.946;2023-02-20T01:53:06;98062.97;;;10.33;88.43
19596;BME280;9945;46.010;8.946;2023-02-20T01:55:38;98068.91;;;10.35;87.62
19596;BME280;9945;46.010;8.946;2023-02-20T01:58:10;98063.38;;;10.29;88.21
19596;BME280;9945;46.010;8.946;2023-02-20T02:00:39;98066.66;;;10.31;86.98
19596;BME280;9945;46.010;8.946;2023-02-20T02:03:13;98061.44;;;10.31;86.87
19596;BME280;9945;46.010;8.946;2023-02-20T02:05:45;98062.97;;;10.33;86.81
19596;BME280;9945;46.010;8.946;2023-02-20T02:08:14;98063.81;;;10.34;86.89
19596;BME280;9945;46.010;8.946;2023-02-20T02:10:46;98062.25;;;10.31;86.23
19596;BME280;9945;46.010;8.946;2023-02-20T02:13:15;98055.25;;;10.32;85.53
19596;BME280;9945;46.010;8.946;2023-02-20T02:15:44;98061.00;;;10.26;85.66
19596;BME280;9945;46.010;8.946;2023-02-20T02:18:34;98057.53;;;10.25;86.07
19596;BME280;9945;46.010;8.946;2023-02-20T02:21:39;98058.25;;;10.27;85.76
19596;BME280;9945;46.010;8.946;2023-02-20T02:24:43;98059.31;;;10.24;86.44
19596;BME280;9945;46.010;8.946;2023-02-20T02:27:35;98059.44;;;10.23;85.66
19596;BME280;9945;46.010;8.946;2023-02-20T02:33:19;98061.09;;;10.24;85.39
19596;BME280;9945;46.010;8.946;2023-02-20T02:39:03;98067.75;;;10.28;85.73
19596;BME280;9945;46.010;8.946;2023-02-20T02:41:41;98063.72;;;10.24;86.76
19596;BME280;9945;46.010;8.946;2023-02-20T02:44:16;98068.25;;;10.22;86.20
19596;BME280;9945;46.010;8.946;2023-02-20T02:46:49;98063.47;;;10.16;86.70
19596;BME280;9945;46.010;8.946;2023-02-20T02:49:25;98072.16;;;10.16;86.14
19596;BME280;9945;46.010;8.946;2023-02-20T02:51:58;98067.06;;;10.15;85.82
19596;BME280;9945;46.010;8.946;2023-02-20T02:54:28;98068.28;;;10.11;86.70
19596;BME280;9945;46.010;8.946;2023-02-20T02:57:17;98065.78;;;10.09;85.66
19596;BME280;9945;46.010;8.946;2023-02-20T02:59:46;98062.44;;;10.07;85.94
19596;BME280;9945;46.010;8.946;2023-02-20T03:02:16;98069.22;;;10.10;86.70
19596;BME280;9945;46.010;8.946;2023-02-20T03:04:49;98070.06;;;10.10;86.35
19596;BME280;9945;46.010;8.946;2023-02-20T03:07:19;98070.28;;;10.07;86.99
19596;BME280;9945;46.010;8.946;2023-02-20T03:09:51;98075.75;;;10.04;87.50
19596;BME280;9945;46.010;8.946;2023-02-20T03:12:20;98081.38;;;10.00;86.60
19596;BME280;9945;46.010;8.946;2023-02-20T03:14:55;98075.44;;;9.98;87.08
19596;BME280;9945;46.010;8.946;2023-02-20T03:17:45;98080.53;;;9.99;87.31
19596;BME280;9945;46.010;8.946;2023-02-20T03:20:16;98082.09;;;10.02;86.40
19596;BME280;9945;46.010;8.946;2023-02-20T03:22:47;98081.25;;;10.01;87.23
19596;BME280;9945;46.010;8.946;2023-02-20T03:25:20;98086.38;;;10.03;86.65
19596;BME280;9945;46.010;8.946;2023-02-20T03:27:52;98090.78;;;10.02;87.87
19596;BME280;9945;46.010;8.946;2023-02-20T03:30:27;98086.50;;;10.01;87.45
19596;BME280;9945;46.010;8.946;2023-02-20T03:32:57;98093.94;;;10.06;86.33
19596;BME280;9945;46.010;8.946;2023-02-20T03:35:45;98098.84;;;9.99;86.71
19596;BME280;9945;46.010;8.946;2023-02-20T03:38:31;98108.84;;;9.94;86.33
19596;BME280;9945;46.010;8.946;2023-02-20T03:41:22;98107.31;;;9.92;87.82
19596;BME280;9945;46.010;8.946;2023-02-20T03:44:09;98117.44;;;9.85;86.66
19596;BME280;9945;46.010;8.946;2023-02-20T03:46:40;98110.53;;;9.73;85.87
19596;BME280;9945;46.010;8.946;2023-02-20T03:49:11;98118.03;;;9.55;88.08
19596;BME280;9945;46.010;8.946;2023-02-20T03:51:39;98120.41;;;9.36;91.48
19596;BME280;9945;46.010;8.946;2023-02-20T03:54:07;98115.66;;;9.30;92.95
19596;BME280;9945;46.010;8.946;2023-02-20T03:56:39;98119.78;;;9.21;95.53
19596;BME280;9945;46.010;8.946;2023-02-20T03:59:13;98123.16;;;9.34;94.27
19596;BME280;9945;46.010;8.946;2023-02-20T04:01:42;98125.28;;;9.40;93.15
19596;BME280;9945;46.010;8.946;2023-02-20T04:04:15;98138.59;;;9.48;94.57
19596;BME280;9945;46.010;8.946;2023-02-20T04:06:46;98135.16;;;9.48;94.91
19596;BME280;9945;46.010;8.946;2023-02-20T04:09:18;98136.59;;;9.52;94.19
19596;BME280;9945;46.010;8.946;2023-02-20T04:11:49;98136.69;;;9.62;93.79
19596;BME280;9945;46.010;8.946;2023-02-20T04:14:20;98139.28;;;9.62;93.73
19596;BME280;9945;46.010;8.946;2023-02-20T04:16:50;98137.66;;;9.61;94.58
19596;BME280;9945;46.010;8.946;2023-02-20T04:19:20;98141.56;;;9.55;94.58
19596;BME280;9945;46.010;8.946;2023-02-20T04:21:50;98145.94;;;9.55;95.39
19596;BME280;9945;46.010;8.946;2023-02-20T04:24:21;98147.72;;;9.54;94.56
19596;BME280;9945;46.010;8.946;2023-02-20T04:26:51;98152.97;;;9.54;95.44
19596;BME280;9945;46.010;8.946;2023-02-20T04:29:18;98153.09;;;9.53;95.47
19596;BME280;9945;46.010;8.946;2023-02-20T04:31:45;98159.13;;;9.53;94.66
19596;BME280;9945;46.010;8.946;2023-02-20T04:34:12;98166.97;;;9.53;95.32
19596;BME280;9945;46.010;8.946;2023-02-20T04:36:38;98160.56;;;9.57;94.82
19596;BME280;9945;46.010;8.946;2023-02-20T04:39:06;98166.88;;;9.55;94.95
19596;BME280;9945;46.010;8.946;2023-02-20T04:41:33;98167.69;;;9.55;94.63
19596;BME280;9945;46.010;8.946;2023-02-20T04:44:01;98174.00;;;9.53;93.49
19596;BME280;9945;46.010;8.946;2023-02-20T04:46:45;98173.28;;;9.51;93.63
19596;BME280;9945;46.010;8.946;2023-02-20T04:49:12;98166.88;;;9.55;95.16
19596;BME280;9945;46.010;8.946;2023-02-20T04:51:39;98172.22;;;9.53;95.03
19596;BME280;9945;46.010;8.946;2023-02-20T04:54:06;98180.19;;;9.52;95.31
19596;BME280;9945;46.010;8.946;2023-02-20T04:56:33;98176.63;;;9.53;94.52
19596;BME280;9945;46.010;8.946;2023-02-20T04:59:01;98176.97;;;9.48;94.15
19596;BME280;9945;46.010;8.946;2023-02-20T05:01:27;98183.03;;;9.48;94.38
19596;BME280;9945;46.010;8.946;2023-02-20T05:03:54;98189.41;;;9.44;93.05
19596;BME280;9945;46.010;8.946;2023-02-20T05:06:21;98191.22;;;9.44;92.92
19596;BME280;9945;46.010;8.946;2023-02-20T05:08:48;98190.50;;;9.42;92.77
19596;BME280;9945;46.010;8.946;2023-02-20T05:11:15;98196.78;;;9.39;93.84
19596;BME280;9945;46.010;8.946;2023-02-20T05:13:42;98192.63;;;9.37;94.07
19596;BME280;9945;46.010;8.946;2023-02-20T05:16:10;98195.22;;;9.37;92.32
19596;BME280;9945;46.010;8.946;2023-02-20T05:18:38;98203.22;;;9.35;92.73
19596;BME280;9945;46.010;8.946;2023-02-20T05:21:05;98214.47;;;9.36;92.29
19596;BME280;9945;46.010;8.946;2023-02-20T05:23:49;98204.28;;;9.33;93.26
19596;BME280;9945;46.010;8.946;2023-02-20T05:26:19;98205.00;;;9.35;92.61
19596;BME280;9945;46.010;8.946;2023-02-20T05:28:47;98209.13;;;9.37;93.64
19596;BME280;9945;46.010;8.946;2023-02-20T05:31:15;98215.09;;;9.39;92.14
19596;BME280;9945;46.010;8.946;2023-02-20T05:33:42;98216.53;;;9.43;92.29
19596;BME280;9945;46.010;8.946;2023-02-20T05:36:09;98215.56;;;9.44;91.29
19596;BME280;9945;46.010;8.946;2023-02-20T05:38:36;98223.19;;;9.47;92.02
19596;BME280;9945;46.010;8.946;2023-02-20T05:41:02;98223.06;;;9.49;91.70
19596;BME280;9945;46.010;8.946;2023-02-20T05:43:29;98221.19;;;9.51;91.24
19596;BME280;9945;46.010;8.946;2023-02-20T05:45:56;98224.63;;;9.52;92.36
19596;BME280;9945;46.010;8.946;2023-02-20T05:48:24;98230.69;;;9.52;92.35
19596;BME280;9945;46.010;8.946;2023-02-20T05:50:51;98227.25;;;9.52;90.86
19596;BME280;9945;46.010;8.946;2023-02-20T05:53:19;98230.31;;;9.57;90.65
19596;BME280;9945;46.010;8.946;2023-02-20T05:55:46;98236.03;;;9.62;90.29
19596;BME280;9945;46.010;8.946;2023-02-20T05:58:13;98237.69;;;9.63;92.09
19596;BME280;9945;46.010;8.946;2023-02-20T06:00:40;98240.69;;;9.69;90.24
19596;BME280;9945;46.010;8.946;2023-02-20T06:03:07;98240.56;;;9.71;89.99
19596;BME280;9945;46.010;8.946;2023-02-20T06:05:37;98250.56;;;9.77;91.30
19596;BME280;9945;46.010;8.946;2023-02-20T06:08:04;98259.00;;;9.80;90.62
19596;BME280;9945;46.010;8.946;2023-02-20T06:10:31;98254.97;;;9.87;89.24
19596;BME280;9945;46.010;8.946;2023-02-20T06:12:58;98260.69;;;9.93;90.27
19596;BME280;9945;46.010;8.946;2023-02-20T06:15:25;98270.66;;;9.99;88.60
19596;BME280;9945;46.010;8.946;2023-02-20T06:17:52;98267.72;;;10.03;89.79
19596;BME280;9945;46.010;8.946;2023-02-20T06:20:19;98281.16;;;10.10;88.45
19596;BME280;9945;46.010;8.946;2023-02-20T06:22:48;98278.06;;;10.16;87.79
19596;BME280;9945;46.010;8.946;2023-02-20T06:25:15;98288.03;;;10.00;88.59
19596;BME280;9945;46.010;8.946;2023-02-20T06:27:42;98276.63;;;10.01;88.90
19596;BME280;9945;46.010;8.946;2023-02-20T06:30:10;98287.09;;;10.01;88.74
19596;BME280;9945;46.010;8.946;2023-02-20T06:32:37;98287.34;;;10.09;88.63
19596;BME280;9945;46.010;8.946;2023-02-20T06:35:04;98291.25;;;10.14;87.81
19596;BME280;9945;46.010;8.946;2023-02-20T06:37:31;98294.50;;;10.18;88.06
19596;BME280;9945;46.010;8.946;2023-02-20T06:40:00;98292.56;;;10.09;87.87
19596;BME280;9945;46.010;8.946;2023-02-20T06:42:27;98301.41;;;10.19;87.39
19596;BME280;9945;46.010;8.946;2023-02-20T06:44:53;98310.09;;;10.19;87.63
19596;BME280;9945;46.010;8.946;2023-02-20T06:47:20;98301.41;;;10.19;87.71
19596;BME280;9945;46.010;8.946;2023-02-20T06:49:47;98306.16;;;10.25;86.76
19596;BME280;9945;46.010;8.946;2023-02-20T06:52:14;98315.47;;;10.29;87.50
19596;BME280;9945;46.010;8.946;2023-02-20T06:54:42;98312.69;;;10.31;86.78
19596;BME280;9945;46.010;8.946;2023-02-20T06:57:10;98326.38;;;10.34;87.04
19596;BME280;9945;46.010;8.946;2023-02-20T06:59:37;98326.28;;;10.36;86.36
19596;BME280;9945;46.010;8.946;2023-02-20T07:02:07;98331.03;;;10.42;86.19
19596;BME280;9945;46.010;8.946;2023-02-20T07:04:36;98330.19;;;10.41;86.59
19596;BME280;9945;46.010;8.946;2023-02-20T07:07:03;98334.25;;;10.45;86.67
19596;BME280;9945;46.010;8.946;2023-02-20T07:09:29;98331.03;;;10.53;87.23
19596;BME280;9945;46.010;8.946;2023-02-20T07:11:58;98338.41;;;10.59;87.31
19596;BME280;9945;46.010;8.946;2023-02-20T07:14:26;98340.91;;;10.60;86.72
19596;BME280;9945;46.010;8.946;2023-02-20T07:16:53;98338.53;;;10.35;87.69
19596;BME280;9945;46.010;8.946;2023-02-20T07:19:20;98342.69;;;10.27;89.15
19596;BME280;9945;46.010;8.946;2023-02-20T07:21:47;98351.38;;;10.38;87.76
19596;BME280;9945;46.010;8.946;2023-02-20T07:24:15;98345.91;;;10.52;88.37
19596;BME280;9945;46.010;8.946;2023-02-20T07:26:42;98351.00;;;10.65;86.72
19596;BME280;9945;46.010;8.946;2023-02-20T07:29:11;98357.81;;;10.68;87.50
19596;BME280;9945;46.010;8.946;2023-02-20T07:31:39;98359.94;;;10.74;86.45
19596;BME280;9945;46.010;8.946;2023-02-20T07:34:06;98359.34;;;10.59;87.48
19596;BME280;9945;46.010;8.946;2023-02-20T07:36:33;98358.50;;;10.58;88.16
19596;BME280;9945;46.010;8.946;2023-02-20T07:39:01;98365.66;;;10.68;87.75
19596;BME280;9945;46.010;8.946;2023-02-20T07:41:29;98360.53;;;10.66;87.93
19596;BME280;9945;46.010;8.946;2023-02-20T07:43:57;98356.00;;;10.68;87.86
19596;BME280;9945;46.010;8.946;2023-02-20T07:46:24;98365.66;;;10.79;87.43
19596;BME280;9945;46.010;8.946;2023-02-20T07:48:53;98359.59;;;10.78;87.20
19596;BME280;9945;46.010;8.946;2023-02-20T07:51:19;98360.16;;;10.82;87.74
19596;BME280;9945;46.010;8.946;2023-02-20T07:53:46;98358.47;;;10.92;87.32
19596;BME280;9945;46.010;8.946;2023-02-20T07:56:15;98361.94;;;10.92;87.50
19596;BME280;9945;46.010;8.946;2023-02-20T07:58:41;98361.31;;;11.00;86.14
19596;BME280;9945;46.010;8.946;2023-02-20T08:01:08;98362.50;;;11.07;85.87
19596;BME280;9945;46.010;8.946;2023-02-20T08:03:35;98360.25;;;11.03;85.30
19596;BME280;9945;46.010;8.946;2023-02-20T08:06:04;98360.72;;;11.08;84.83
19596;BME280;9945;46.010;8.946;2023-02-20T08:08:31;98368.47;;;11.09;83.94
19596;BME280;9945;46.010;8.946;2023-02-20T08:10:58;98367.97;;;11.15;82.76
19596;BME280;9945;46.010;8.946;2023-02-20T08:13:25;98364.28;;;11.07;82.62
19596;BME280;9945;46.010;8.946;2023-02-20T08:15:52;98361.06;;;11.14;81.90
19596;BME280;9945;46.010;8.946;2023-02-20T08:18:18;98362.94;;;11.23;81.79
19596;BME280;9945;46.010;8.946;2023-02-20T08:20:45;98351.84;;;11.31;81.15
19596;BME280;9945;46.010;8.946;2023-02-20T08:23:17;98351.25;;;11.27;81.05
19596;BME280;9945;46.010;8.946;2023-02-20T08:25:44;98360.66;;;11.30;81.09
19596;BME280;9945;46.010;8.946;2023-02-20T08:28:11;98352.31;;;11.36;81.16
19596;BME280;9945;46.010;8.946;2023-02-20T08:30:39;98355.25;;;11.43;81.06
19596;BME280;9945;46.010;8.946;2023-02-20T08:33:06;98355.84;;;11.46;80.76
19596;BME280;9945;46.010;8.946;2023-02-20T08:35:33;98351.44;;;11.47;81.07
19596;BME280;9945;46.010;8.946;2023-02-20T08:38:00;98356.88;;;11.55;82.63
19596;BME280;9945;46.010;8.946;2023-02-20T08:40:28;98349.00;;;11.55;83.40
19596;BME280;9945;46.010;8.946;2023-02-20T08:42:55;98355.84;;;11.46;83.46
19596;BME280;9945;46.010;8.946;2023-02-20T08:45:22;98358.28;;;11.59;85.01
19596;BME280;9945;46.010;8.946;2023-02-20T08:47:50;98359.94;;;11.92;83.50
19596;BME280;9945;46.010;8.946;2023-02-20T08:50:17;98349.19;;;12.16;82.69
19596;BME280;9945;46.010;8.946;2023-02-20T08:52:44;98348.78;;;12.41;82.87
19596;BME280;9945;46.010;8.946;2023-02-20T08:55:13;98352.38;;;12.40;83.50
19596;BME280;9945;46.010;8.946;2023-02-20T08:57:43;98346.91;;;12.93;81.27
19596;BME280;9945;46.010;8.946;2023-02-20T09:00:12;98348.53;;;13.34;78.82
19596;BME280;9945;46.010;8.946;2023-02-20T09:02:39;98356.41;;;13.72;77.27
19596;BME280;9945;46.010;8.946;2023-02-20T09:05:07;98349.22;;;13.64;75.33
19596;BME280;9945;46.010;8.946;2023-02-20T09:07:34;98352.13;;;13.52;74.97
19596;BME280;9945;46.010;8.946;2023-02-20T09:10:01;98351.84;;;13.55;73.71
19596;BME280;9945;46.010;8.946;2023-02-20T09:12:28;98351.97;;;13.34;76.38
19596;BME280;9945;46.010;8.946;2023-02-20T09:14:56;98345.44;;;12.79;79.64
19596;BME280;9945;46.010;8.946;2023-02-20T09:17:25;98354.59;;;13.24;76.38
19596;BME280;9945;46.010;8.946;2023-02-20T09:19:52;98353.06;;;13.32;76.33
19596;BME280;9945;46.010;8.946;2023-02-20T09:22:21;98340.16;;;13.19;77.56
19596;BME280;9945;46.010;8.946;2023-02-20T09:24:48;98343.44;;;13.02;78.30
19596;BME280;9945;46.010;8.946;2023-02-20T09:27:15;98352.50;;;13.18;76.06
19596;BME280;9945;46.010;8.946;2023-02-20T09:29:42;98350.56;;;13.20;76.17
19596;BME280;9945;46.010;8.946;2023-02-20T09:32:11;98345.06;;;13.52;74.92
19596;BME280;9945;46.010;8.946;2023-02-20T09:34:38;98350.03;;;13.36;75.35
19596;BME280;9945;46.010;8.946;2023-02-20T09:37:05;98349.06;;;13.47;75.85
19596;BME280;9945;46.010;8.946;2023-02-20T09:39:32;98355.84;;;13.88;73.31
19596;BME280;9945;46.010;8.946;2023-02-20T09:42:14;98360.16;;;13.60;73.54
19596;BME280;9945;46.010;8.946;2023-02-20T09:44:51;98353.50;;;13.56;74.49
19596;BME280;9945;46.010;8.946;2023-02-20T09:47:37;98354.19;;;13.48;74.64
19596;BME280;9945;46.010;8.946;2023-02-20T09:50:12;98353.63;;;13.64;73.58
19596;BME280;9945;46.010;8.946;2023-02-20T09:52:43;98350.31;;;13.72;73.20
19596;BME280;9945;46.010;8.946;2023-02-20T09:55:13;98358.41;;;13.11;77.29
19596;BME280;9945;46.010;8.946;2023-02-20T09:57:45;98358.00;;;12.66;78.00
19596;BME280;9945;46.010;8.946;2023-02-20T10:00:21;98360.25;;;12.80;78.31
19596;BME280;9945;46.010;8.946;2023-02-20T10:02:56;98364.06;;;13.06;76.01
19596;BME280;9945;46.010;8.946;2023-02-20T10:05:28;98358.56;;;13.09;76.01
19596;BME280;9945;46.010;8.946;2023-02-20T10:07:55;98354.13;;;13.10;75.54
19596;BME280;9945;46.010;8.946;2023-02-20T10:10:25;98356.88;;;13.08;75.85
19596;BME280;9945;46.010;8.946;2023-02-20T10:13:06;98357.03;;;13.07;76.69
19596;BME280;9945;46.010;8.946;2023-02-20T10:15:45;98355.13;;;13.28;73.95
19596;BME280;9945;46.010;8.946;2023-02-20T10:18:26;98349.91;;;13.47;74.85
19596;BME280;9945;46.010;8.946;2023-02-20T10:21:00;98346.44;;;13.76;73.35
19596;BME280;9945;46.010;8.946;2023-02-20T10:23:37;98349.59;;;13.89;71.90
19596;BME280;9945;46.010;8.946;2023-02-20T10:26:11;98354.03;;;14.08;70.26
19596;BME280;9945;46.010;8.946;2023-02-20T10:28:38;98344.81;;;14.21;69.46
19596;BME280;9945;46.010;8.946;2023-02-20T10:31:11;98341.78;;;14.26;69.38
19596;BME280;9945;46.010;8.946;2023-02-20T10:33:48;98342.94;;;14.60;68.77
19596;BME280;9945;46.010;8.946;2023-02-20T10:36:19;98334.13;;;16.21;63.07
19596;BME280;9945;46.010;8.946;2023-02-20T10:38:51;98340.66;;;18.18;54.97
19596;BME280;9945;46.010;8.946;2023-02-20T10:41:25;98335.66;;;19.79;49.70
19596;BME280;9945;46.010;8.946;2023-02-20T10:43:59;98333.88;;;20.61;46.73
19596;BME280;9945;46.010;8.946;2023-02-20T10:46:32;98333.63;;;21.36;44.49
19596;BME280;9945;46.010;8.946;2023-02-20T10:49:06;98321.25;;;21.13;43.48
19596;BME280;9945;46.010;8.946;2023-02-20T10:51:37;98327.91;;;22.24;40.51
19596;BME280;9945;46.010;8.946;2023-02-20T10:54:13;98317.94;;;23.15;38.79
19596;BME280;9945;46.010;8.946;2023-02-20T10:56:45;98314.50;;;22.45;39.40
19596;BME280;9945;46.010;8.946;2023-02-20T10:59:18;98312.59;;;22.74;38.43
19596;BME280;9945;46.010;8.946;2023-02-20T11:01:50;98313.81;;;23.86;35.94
19596;BME280;9945;46.010;8.946;2023-02-20T11:04:24;98307.78;;;24.63;34.43
19596;BME280;9945;46.010;8.946;2023-02-20T11:06:55;98305.97;;;25.46;32.74
19596;BME280;9945;46.010;8.946;2023-02-20T11:09:23;98300.63;;;25.08;33.17
19596;BME280;9945;46.010;8.946;2023-02-20T11:11:52;98294.06;;;25.74;32.09
19596;BME280;9945;46.010;8.946;2023-02-20T11:14:22;98288.25;;;26.51;31.35
19596;BME280;9945;46.010;8.946;2023-02-20T11:16:52;98286.13;;;26.90;30.55
19596;BME280;9945;46.010;8.946;2023-02-20T11:19:25;98279.06;;;26.59;30.06
19596;BME280;9945;46.010;8.946;2023-02-20T11:21:54;98280.72;;;26.60;30.30
19596;BME280;9945;46.010;8.946;2023-02-20T11:24:32;98269.25;;;26.46;30.71
19596;BME280;9945;46.010;8.946;2023-02-20T11:27:08;98275.69;;;26.82;29.80
19596;BME280;9945;46.010;8.946;2023-02-20T11:29:42;98263.47;;;26.67;29.94
19596;BME280;9945;46.010;8.946;2023-02-20T11:32:32;98259.72;;;26.68;30.32
19596;BME280;9945;46.010;8.946;2023-02-20T11:35:21;98261.56;;;26.31;30.82
19596;BME280;9945;46.010;8.946;2023-02-20T11:38:15;98258.00;;;26.13;31.20
19596;BME280;9945;46.010;8.946;2023-02-20T11:40:44;98244.19;;;26.34;30.67
19596;BME280;9945;46.010;8.946;2023-02-20T11:43:22;98251.06;;;26.05;31.43
19596;BME280;9945;46.010;8.946;2023-02-20T11:46:06;98243.81;;;23.76;34.06
19596;BME280;9945;46.010;8.946;2023-02-20T11:48:33;98239.63;;;24.46;34.32
19596;BME280;9945;46.010;8.946;2023-02-20T11:51:02;98233.28;;;24.27;33.07
19596;BME280;9945;46.010;8.946;2023-02-20T11:53:30;98237.88;;;23.54;34.82
19596;BME280;9945;46.010;8.946;2023-02-20T11:56:09;98230.63;;;24.78;33.39
19596;BME280;9945;46.010;8.946;2023-02-20T11:58:36;98227.19;;;25.16;31.67
19596;BME280;9945;46.010;8.946;2023-02-20T12:01:04;98225.72;;;25.45;31.15
19596;BME280;9945;46.010;8.946;2023-02-20T12:03:32;98223.25;;;23.90;33.30
19596;BME280;9945;46.010;8.946;2023-02-20T12:06:26;98223.41;;;24.92;32.65
19596;BME280;9945;46.010;8.946;2023-02-20T12:08:51;98219.84;;;22.95;34.68
19596;BME280;9945;46.010;8.946;2023-02-20T12:11:20;98214.84;;;21.27;38.08
19596;BME280;9945;46.010;8.946;2023-02-20T12:13:49;98216.50;;;21.28;38.94
19596;BME280;9945;46.010;8.946;2023-02-20T12:16:29;98198.19;;;20.82;39.02
19596;BME280;9945;46.010;8.946;2023-02-20T12:19:06;98190.84;;;22.04;37.42
19596;BME280;9945;46.010;8.946;2023-02-20T12:21:48;98188.13;;;22.32;37.22
19596;BME280;9945;46.010;8.946;2023-02-20T12:24:39;98185.56;;;23.91;33.88
19596;BME280;9945;46.010;8.946;2023-02-20T12:27:25;98181.50;;;24.53;32.83
19596;BME280;9945;46.010;8.946;2023-02-20T12:30:04;98169.88;;;24.21;33.66
19596;BME280;9945;46.010;8.946;2023-02-20T12:32:40;98176.56;;;24.95;32.43
19596;BME280;9945;46.010;8.946;2023-02-20T12:35:24;98157.91;;;22.18;36.88
19596;BME280;9945;46.010;8.946;2023-02-20T12:38:04;98156.09;;;24.24;33.97
19596;BME280;9945;46.010;8.946;2023-02-20T12:40:46;98139.31;;;23.64;33.86
19596;BME280;9945;46.010;8.946;2023-02-20T12:43:30;98138.78;;;24.13;34.10
19596;BME280;9945;46.010;8.946;2023-02-20T12:46:06;98136.06;;;25.09;32.61
19596;BME280;9945;46.010;8.946;2023-02-20T12:48:45;98139.38;;;25.05;31.66
19596;BME280;9945;46.010;8.946;2023-02-20T12:51:27;98128.38;;;24.81;32.00
19596;BME280;9945;46.010;8.946;2023-02-20T12:54:06;98119.00;;;24.66;33.04
19596;BME280;9945;46.010;8.946;2023-02-20T12:56:48;98111.09;;;22.83;35.45
19596;BME280;9945;46.010;8.946;2023-02-20T12:59:25;98109.38;;;24.51;33.40
19596;BME280;9945;46.010;8.946;2023-02-20T13:01:54;98107.06;;;25.00;32.23
19596;BME280;9945;46.010;8.946;2023-02-20T13:04:27;98103.84;;;22.63;35.16
19596;BME280;9945;46.010;8.946;2023-02-20T13:07:02;98103.94;;;24.27;33.77
19596;BME280;9945;46.010;8.946;2023-02-20T13:09:33;98099.94;;;24.80;32.15
19596;BME280;9945;46.010;8.946;2023-02-20T13:12:04;98084.34;;;24.71;31.78
19596;BME280;9945;46.010;8.946;2023-02-20T13:14:41;98090.38;;;25.22;31.88
19596;BME280;9945;46.010;8.946;2023-02-20T13:17:24;98084.16;;;25.72;30.71
19596;BME280;9945;46.010;8.946;2023-02-20T13:19:57;98078.56;;;26.58;30.04
19596;BME280;9945;46.010;8.946;2023-02-20T13:22:26;98070.53;;;27.11;29.19
19596;BME280;9945;46.010;8.946;2023-02-20T13:28:00;98062.13;;;27.66;28.46
19596;BME280;9945;46.010;8.946;2023-02-20T13:30:27;98054.38;;;27.23;28.51
19596;BME280;9945;46.010;8.946;2023-02-20T13:33:10;98054.06;;;27.54;28.65
19596;BME280;9945;46.010;8.946;2023-02-20T13:35:49;98053.00;;;27.43;28.80
19596;BME280;9945;46.010;8.946;2023-02-20T13:38:19;98048.19;;;27.22;28.90
19596;BME280;9945;46.010;8.946;2023-02-20T13:43:40;98051.94;;;27.56;28.17
19596;BME280;9945;46.010;8.946;2023-02-20T13:46:12;98042.28;;;27.95;27.76